createdAt,value
2022-12-28T00:04:02.971Z,652.81
2022-12-28T00:09:22.392Z,0
2022-12-28T00:14:41.471Z,652.81
2022-12-28T00:20:00.998Z,0
2022-12-28T00:30:38.897Z,652.81
2022-12-28T00:41:17.744Z,652.81
2022-12-28T00:46:36.736Z,652.81
2022-12-28T00:51:56.479Z,652.81
2022-12-28T00:57:16.113Z,652.81
2022-12-28T01:02:35.164Z,652.81
2022-12-28T01:13:14.009Z,652.81
2022-12-28T01:29:12.904Z,0
2022-12-28T01:39:50.775Z,652.81
2022-12-28T01:45:09.266Z,0
2022-12-28T01:55:48.246Z,0
2022-12-28T02:06:26.424Z,0
2022-12-28T02:11:45.459Z,0
2022-12-28T02:22:23.685Z,0
2022-12-28T02:38:20.612Z,0
2022-12-28T02:48:59.821Z,0
2022-12-28T02:59:38.040Z,0
2022-12-28T03:15:35.892Z,0
2022-12-28T03:26:14.777Z,0
2022-12-28T03:31:33.908Z,0
2022-12-28T03:42:11.752Z,0
2022-12-28T03:47:40.632Z,0
2022-12-28T03:52:50.259Z,0
2022-12-28T03:58:09.964Z,0
2022-12-28T04:14:10.469Z,0
2022-12-28T04:24:44.916Z,0
2022-12-28T04:30:03.814Z,0
2022-12-28T04:40:43.191Z,0
2022-12-28T04:56:41.192Z,0
2022-12-28T05:07:20.295Z,0
2022-12-28T05:12:39.403Z,0
2022-12-28T05:17:58.266Z,0
2022-12-28T05:23:17.698Z,0
2022-12-28T05:28:37.269Z,0
2022-12-28T05:39:16.049Z,0
2022-12-28T05:49:53.670Z,0
2022-12-28T05:55:13.374Z,0
2022-12-28T06:05:51.316Z,0
2022-12-28T06:11:10.173Z,0
2022-12-28T06:21:49.283Z,0
2022-12-28T06:32:28.581Z,0
2022-12-28T06:37:48.262Z,0
2022-12-28T06:48:27.488Z,0
2022-12-28T06:53:46.670Z,0
2022-12-28T06:59:06.262Z,0
2022-12-28T07:04:25.673Z,0
2022-12-28T07:15:04.062Z,18
2022-12-28T07:20:24.321Z,17.78
2022-12-28T07:31:03.484Z,19.46
2022-12-28T07:36:21.255Z,20.04
2022-12-28T07:47:00.041Z,23.64
2022-12-28T07:57:37.826Z,28.82
2022-12-28T08:02:57.263Z,29.68
2022-12-28T08:13:35.719Z,34.36
2022-12-28T08:18:54.722Z,31.59
2022-12-28T08:29:33.534Z,38.49
2022-12-28T08:34:53.269Z,38.94
2022-12-28T08:45:32.104Z,43.87
2022-12-28T08:56:11.433Z,50.89
2022-12-28T09:01:30.823Z,54.4
2022-12-28T09:12:09.599Z,68.7
2022-12-28T09:28:07.283Z,86.63
2022-12-28T09:38:46.281Z,88.95
2022-12-28T09:49:25.372Z,111.3
2022-12-28T09:54:44.219Z,104.89
2022-12-28T10:00:03.876Z,105.74
2022-12-28T10:05:23.066Z,88.29
2022-12-28T10:21:20.295Z,81.86
2022-12-28T10:37:18.381Z,119.94
2022-12-28T10:47:56.889Z,121.28
2022-12-28T11:03:54.539Z,144
2022-12-28T11:14:33.507Z,160.23
2022-12-28T11:30:31.538Z,244.32
2022-12-28T11:46:28.506Z,233.67
2022-12-28T11:57:06.929Z,230.5
2022-12-28T12:02:26.806Z,206.54
2022-12-28T12:09:00.974Z,145.33
2022-12-28T12:13:05.975Z,140.5
2022-12-28T12:18:25.206Z,81.36
2022-12-28T12:29:03.275Z,92.86
2022-12-28T12:39:39.710Z,173.56
2022-12-28T12:44:59.130Z,164.09
2022-12-28T12:50:18.783Z,132.51
2022-12-28T12:55:38.114Z,107.48
2022-12-28T13:00:57.258Z,104.12
2022-12-28T13:11:35.281Z,46.79
2022-12-28T13:27:32.904Z,47.46
2022-12-28T13:38:10.149Z,50.9
2022-12-28T13:43:29.271Z,74.93
2022-12-28T13:48:48.920Z,100.19
2022-12-28T13:54:08.088Z,54.79
2022-12-28T13:59:26.891Z,43.86
2022-12-28T14:10:05.951Z,37.98
2022-12-28T14:20:45.303Z,36.14
2022-12-28T14:26:04.647Z,35.94
2022-12-28T14:32:42.785Z,38.12
2022-12-28T14:43:56.394Z,29.66
2022-12-28T14:54:35.141Z,28.98
2022-12-28T15:10:33.314Z,26.39
2022-12-28T15:15:52.173Z,22.48
2022-12-28T15:21:10.778Z,19.11
2022-12-28T15:37:08.569Z,1
2022-12-28T15:53:07.291Z,0
2022-12-28T16:03:44.339Z,0
2022-12-28T16:09:03.904Z,0
2022-12-28T16:25:02.231Z,0
2022-12-28T16:30:21.870Z,0
2022-12-28T16:41:00.145Z,0
2022-12-28T16:46:19.230Z,0
2022-12-28T16:56:57.627Z,0
2022-12-28T17:02:17.347Z,0
2022-12-28T17:12:55.751Z,0
2022-12-28T17:28:53.675Z,0
2022-12-28T17:39:36.080Z,0
2022-12-28T17:44:50.660Z,0
2022-12-28T17:55:29.411Z,0
2022-12-28T18:11:27.837Z,0
2022-12-28T18:22:06.595Z,0
2022-12-28T18:27:26.000Z,0
2022-12-28T18:38:05.133Z,0
2022-12-28T18:43:23.691Z,0
2022-12-28T18:54:01.930Z,0
2022-12-28T19:09:59.599Z,0
2022-12-28T19:20:37.408Z,0
2022-12-28T19:25:56.576Z,0
2022-12-28T19:36:35.080Z,0
2022-12-28T19:47:13.463Z,0
2022-12-28T19:52:33.554Z,0
2022-12-28T20:03:11.227Z,0
2022-12-28T20:19:09.027Z,0
2022-12-28T20:24:28.124Z,0
2022-12-28T20:35:05.862Z,0
2022-12-28T20:45:46.155Z,0
2022-12-28T20:51:03.069Z,0
2022-12-28T21:01:41.843Z,0
2022-12-28T21:17:40.177Z,0
2022-12-28T21:28:18.343Z,0
2022-12-28T21:33:38.112Z,0
2022-12-28T21:44:16.489Z,0
2022-12-28T21:54:55.026Z,0
2022-12-28T22:00:14.347Z,0
2022-12-28T22:10:56.200Z,0
2022-12-28T22:16:12.136Z,0
2022-12-28T22:26:51.393Z,0
2022-12-28T22:32:11.040Z,0
2022-12-28T22:42:48.694Z,0
2022-12-28T22:53:27.290Z,0
2022-12-28T22:58:46.380Z,0
2022-12-28T23:09:24.584Z,0
2022-12-28T23:14:43.569Z,0
2022-12-28T23:20:01.889Z,0
2022-12-28T23:36:00.167Z,0
2022-12-28T23:46:38.304Z,0
2022-12-28T23:51:57.957Z,0
